Terminal Aerodrome Forecast
Issued by NWS

Home | Current Version | Previous Version | Text Only | Print | Product List | Glossary On
Versions: 1 2 3 4 5 6 7 8 9 10 11 12 13
606
FTUS46 KHNX 081126
TAFFAT
TAF
KFAT 081126Z 0812/0912 00000KT 4SM BR SKC
      TEMPO 0813/0817 2SM BR
     FM081800 VRB03KT 5SM HZ SKC
     FM082100 VRB03KT P6SM SKC
     FM090800 00000KT 4SM BR SKC=

USA.gov is the U.S. government's official web portal to all federal, state and local government web resources and services.